Time;durP1;ratioP1;P1;durP2;ratioP2;P2;SDS_P1;SDS_P2;PMS_P1;PMS_P2;Temp;Humidity;BMP_temperature;BMP_pressure;BME280_temperature;BME280_humidity;BME280_pressure;Samples;Min_cycle;Max_cycle;Signal;HPM_P1;HPM_P2
2024/02/22 00:04:27;;;;;;;7.93;3.78;;;;;;;6.91;100.00;98914.66;10288320;28;20065;-79
2024/02/22 00:09:33;;;;;;;7.72;4.30;;;;;;;6.86;100.00;98904.38;10295790;28;20504;-81
2024/02/22 00:14:39;;;;;;;6.15;3.45;;;;;;;6.78;100.00;98886.38;10288610;28;20058;-79
2024/02/22 00:19:42;;;;;;;5.15;3.60;;;;;;;6.71;100.00;98879.03;10293337;28;20058;-81
2024/02/22 00:24:46;;;;;;;4.00;3.60;;;;;;;6.93;100.00;98862.00;10292364;28;20074;-78
2024/02/22 00:29:50;;;;;;;4.72;3.50;;;;;;;6.82;100.00;98855.75;10282317;28;20053;-81
2024/02/22 00:34:53;;;;;;;4.30;3.17;;;;;;;6.82;100.00;98831.72;10288220;28;20046;-80
2024/02/22 00:39:56;;;;;;;6.97;4.38;;;;;;;6.93;100.00;98843.31;10285179;28;20043;-81
2024/02/22 00:45:00;;;;;;;4.75;3.45;;;;;;;6.80;100.00;98833.72;10293583;28;20047;-80
2024/02/22 00:50:04;;;;;;;9.05;3.72;;;;;;;6.89;100.00;98825.91;10310254;28;20141;-80
2024/02/22 00:55:08;;;;;;;4.35;2.88;;;;;;;6.79;100.00;98817.81;10302413;28;20046;-81
2024/02/22 01:00:15;;;;;;;5.35;3.55;;;;;;;6.81;100.00;98808.69;10287239;28;20050;-81
2024/02/22 01:05:19;;;;;;;4.30;2.97;;;;;;;6.85;100.00;98779.91;10281255;28;20421;-79
2024/02/22 01:10:22;;;;;;;4.47;3.20;;;;;;;6.62;100.00;98768.66;10283031;28;20064;-80
2024/02/22 01:15:26;;;;;;;6.65;3.05;;;;;;;7.00;100.00;98743.00;10281101;28;20105;-80
2024/02/22 01:20:29;;;;;;;2.67;2.47;;;;;;;6.95;100.00;98753.25;10297531;28;20068;-80
2024/02/22 01:25:33;;;;;;;3.45;2.20;;;;;;;6.71;100.00;98758.97;10310349;28;20046;-79
2024/02/22 01:30:37;;;;;;;6.82;3.22;;;;;;;7.00;100.00;98740.34;10305260;28;20050;-79
2024/02/22 01:35:40;;;;;;;3.00;2.70;;;;;;;7.11;100.00;98728.66;10302784;28;20076;-83
2024/02/22 01:40:44;;;;;;;3.40;2.83;;;;;;;6.97;100.00;98722.78;10309488;28;20046;-82
2024/02/22 01:45:48;;;;;;;2.97;2.70;;;;;;;7.09;100.00;98710.09;10286894;28;20057;-82
2024/02/22 01:50:53;;;;;;;3.40;2.53;;;;;;;6.80;100.00;98710.94;10292298;28;20042;-82
2024/02/22 01:55:58;;;;;;;2.47;2.25;;;;;;;6.97;100.00;98695.25;10285508;28;20046;-81
2024/02/22 02:01:04;;;;;;;2.78;2.33;;;;;;;6.86;100.00;98688.19;10279988;28;20391;-82
2024/02/22 02:06:08;;;;;;;4.80;2.30;;;;;;;6.87;100.00;98679.22;10275452;28;20043;-79
2024/02/22 02:11:13;;;;;;;2.78;2.55;;;;;;;7.13;100.00;98673.28;10298200;28;20956;-79
2024/02/22 02:16:17;;;;;;;2.40;2.20;;;;;;;6.89;100.00;98666.59;10294524;28;20196;-80
2024/02/22 02:21:33;;;;;;;4.68;1.60;;;;;;;6.76;100.00;98653.50;10286881;28;20050;-79
2024/02/22 02:26:37;;;;;;;2.28;1.70;;;;;;;6.95;100.00;98641.97;10281606;28;20054;-80
2024/02/22 02:31:40;;;;;;;3.03;1.52;;;;;;;7.00;100.00;98634.38;10279415;28;20058;-79
2024/02/22 02:36:43;;;;;;;2.20;1.85;;;;;;;6.89;100.00;98617.72;10277092;28;20513;-79
2024/02/22 02:41:48;;;;;;;1.30;1.20;;;;;;;6.95;100.00;98611.78;10279724;28;20120;-80
2024/02/22 02:46:51;;;;;;;1.63;1.35;;;;;;;7.14;100.00;98611.72;10275186;28;20050;-80
2024/02/22 02:51:54;;;;;;;0.75;0.75;;;;;;;6.93;100.00;98603.91;10269064;28;20141;-79
2024/02/22 02:56:58;;;;;;;1.33;1.23;;;;;;;7.12;100.00;98597.69;10268767;28;20421;-80
2024/02/22 03:02:02;;;;;;;1.20;1.05;;;;;;;7.04;100.00;98592.22;10296567;28;20074;-78
2024/02/22 03:07:05;;;;;;;1.02;0.88;;;;;;;7.06;100.00;98583.09;10266064;28;20053;-79
2024/02/22 03:12:09;;;;;;;1.23;0.90;;;;;;;7.20;100.00;98583.59;10282174;28;20065;-79
2024/02/22 03:17:14;;;;;;;1.00;1.00;;;;;;;7.17;100.00;98575.88;10279134;28;20125;-79
2024/02/22 03:22:17;;;;;;;1.30;1.20;;;;;;;7.02;100.00;98575.50;10276930;28;20042;-79
2024/02/22 03:27:21;;;;;;;1.25;1.15;;;;;;;7.14;100.00;98561.00;10302177;28;20054;-79
2024/02/22 03:32:24;;;;;;;1.33;0.73;;;;;;;7.30;100.00;98559.53;10272071;28;20132;-79
2024/02/22 03:37:27;;;;;;;1.63;1.52;;;;;;;7.24;100.00;98547.59;10283302;28;20054;-79
2024/02/22 03:42:35;;;;;;;0.73;0.73;;;;;;;7.37;100.00;98555.28;10282104;28;20077;-78
2024/02/22 03:47:38;;;;;;;0.68;0.68;;;;;;;7.20;100.00;98539.03;10281561;28;20124;-79
2024/02/22 03:52:42;;;;;;;0.63;0.63;;;;;;;7.37;100.00;98520.53;10278813;28;20057;-78
2024/02/22 03:57:46;;;;;;;0.90;0.90;;;;;;;7.44;100.00;98525.16;10288159;28;20058;-78
2024/02/22 04:02:49;;;;;;;0.80;0.80;;;;;;;7.53;100.00;98523.41;10295168;28;20129;-78
2024/02/22 04:07:52;;;;;;;0.80;0.80;;;;;;;7.52;100.00;98508.38;10277596;28;20509;-79
2024/02/22 04:12:57;;;;;;;1.85;0.90;;;;;;;7.33;100.00;98504.00;10287687;28;20054;-79
2024/02/22 04:18:00;;;;;;;0.70;0.52;;;;;;;7.03;100.00;98515.81;10279390;28;20047;-78
2024/02/22 04:23:03;;;;;;;1.10;1.00;;;;;;;7.40;100.00;98506.88;10294720;28;20070;-79
2024/02/22 04:28:10;;;;;;;1.15;1.05;;;;;;;7.54;100.00;98493.00;10286426;28;20596;-78
2024/02/22 04:33:15;;;;;;;1.50;1.40;;;;;;;7.40;100.00;98490.88;10276745;28;20051;-79
2024/02/22 04:38:18;;;;;;;1.92;1.83;;;;;;;7.19;100.00;98499.16;10319315;28;20078;-79
2024/02/22 04:43:23;;;;;;;2.38;2.17;;;;;;;7.55;100.00;98481.34;10301377;28;21251;-80
2024/02/22 04:48:26;;;;;;;2.53;2.33;;;;;;;7.50;100.00;98479.13;10297095;28;20078;-80
2024/02/22 04:53:29;;;;;;;4.32;2.97;;;;;;;7.58;100.00;98480.22;10285557;28;20057;-79
2024/02/22 04:58:36;;;;;;;5.90;2.90;;;;;;;7.69;100.00;98474.66;10280492;28;20073;-80
2024/02/22 05:03:40;;;;;;;2.70;2.15;;;;;;;7.55;100.00;98468.00;10273434;28;20050;-80
2024/02/22 05:08:43;;;;;;;3.28;2.97;;;;;;;7.83;100.00;98454.56;10277979;28;20046;-77
2024/02/22 05:13:50;;;;;;;4.90;3.50;;;;;;;7.89;100.00;98446.75;10280505;28;20550;-79
2024/02/22 05:18:53;;;;;;;5.30;3.97;;;;;;;7.75;100.00;98443.78;10281226;28;20541;-79
2024/02/22 05:23:56;;;;;;;4.30;3.17;;;;;;;7.64;100.00;98443.03;10275240;28;20679;-80
2024/02/22 05:29:01;;;;;;;3.05;2.38;;;;;;;7.66;100.00;98427.69;10287652;28;20046;-80
2024/02/22 05:34:04;;;;;;;4.45;3.03;;;;;;;7.64;100.00;98418.97;10295511;28;20050;-80
2024/02/22 05:39:08;;;;;;;3.33;2.72;;;;;;;7.77;100.00;98407.06;10282093;28;20066;-79
2024/02/22 05:44:12;;;;;;;3.60;3.30;;;;;;;7.79;100.00;98403.25;10285327;28;21268;-80
2024/02/22 05:49:16;;;;;;;7.40;4.75;;;;;;;7.58;100.00;98400.91;10285011;28;20047;-80
2024/02/22 05:54:21;;;;;;;7.55;6.00;;;;;;;7.59;100.00;98404.41;10286830;28;20129;-79
2024/02/22 05:59:25;;;;;;;9.93;6.82;;;;;;;7.72;100.00;98400.34;10267331;28;20122;-79
2024/02/22 06:04:28;;;;;;;14.30;7.40;;;;;;;7.54;100.00;98390.66;10278834;28;20054;-80
2024/02/22 06:09:31;;;;;;;8.68;6.00;;;;;;;7.36;100.00;98396.84;10273324;28;20058;-81
2024/02/22 06:14:36;;;;;;;12.75;8.63;;;;;;;7.52;100.00;98409.53;10286973;28;20047;-79
2024/02/22 06:19:39;;;;;;;17.10;10.15;;;;;;;7.58;100.00;98406.22;10279931;28;20051;-80
2024/02/22 06:24:42;;;;;;;16.67;10.70;;;;;;;7.54;100.00;98401.34;10251317;28;20050;-78
2024/02/22 06:29:47;;;;;;;17.45;10.65;;;;;;;7.81;100.00;98395.91;10294711;28;20050;-80
2024/02/22 06:34:50;;;;;;;19.02;11.43;;;;;;;8.02;100.00;98405.41;10314370;28;20061;-81
2024/02/22 06:39:53;;;;;;;19.30;11.30;;;;;;;8.01;100.00;98393.91;10288814;28;20050;-80
2024/02/22 06:44:58;;;;;;;17.77;12.18;;;;;;;7.98;100.00;98402.22;10293720;28;21143;-79
2024/02/22 06:50:03;;;;;;;20.92;13.05;;;;;;;7.84;100.00;98400.09;10285895;28;20042;-78
2024/02/22 06:55:07;;;;;;;25.95;12.88;;;;;;;7.88;100.00;98393.47;10277061;28;21546;-80
2024/02/22 07:00:14;;;;;;;18.75;12.15;;;;;;;7.84;100.00;98400.09;10291091;28;20867;-79
2024/02/22 07:05:17;;;;;;;14.63;9.45;;;;;;;7.95;100.00;98400.69;10286440;28;20106;-79
2024/02/22 07:10:21;;;;;;;16.50;10.68;;;;;;;7.78;100.00;98398.88;10300470;28;20057;-80
2024/02/22 07:15:26;;;;;;;14.27;9.68;;;;;;;7.94;100.00;98390.16;10277764;28;20054;-78
2024/02/22 07:20:29;;;;;;;12.82;8.52;;;;;;;7.84;100.00;98389.41;10265664;28;21138;-80
2024/02/22 07:25:32;;;;;;;10.25;7.53;;;;;;;7.70;100.00;98396.97;10268385;28;20062;-79
2024/02/22 07:30:36;;;;;;;10.18;7.90;;;;;;;7.91;100.00;98391.31;10285027;28;20062;-79
2024/02/22 07:35:40;;;;;;;10.30;7.90;;;;;;;8.08;100.00;98389.56;10290456;28;20049;-79
2024/02/22 07:40:43;;;;;;;7.70;6.38;;;;;;;7.94;100.00;98382.13;10312961;28;20039;-79
2024/02/22 07:45:47;;;;;;;6.85;5.25;;;;;;;7.81;100.00;98368.34;10285513;28;20050;-79
2024/02/22 07:50:50;;;;;;;4.20;3.20;;;;;;;7.82;100.00;98370.03;10283619;28;20050;-80
2024/02/22 07:55:53;;;;;;;9.63;4.45;;;;;;;7.97;100.00;98362.28;10270092;28;20119;-79
2024/02/22 08:00:58;;;;;;;5.28;4.43;;;;;;;8.25;100.00;98355.75;10271905;28;20164;-79
2024/02/22 08:06:02;;;;;;;5.03;4.00;;;;;;;8.18;100.00;98358.22;10284570;28;20053;-80
2024/02/22 08:11:07;;;;;;;6.85;4.78;;;;;;;8.16;100.00;98338.81;10285143;28;20138;-78
2024/02/22 08:16:12;;;;;;;6.35;4.10;;;;;;;8.51;100.00;98337.03;10283634;28;20058;-79
2024/02/22 08:21:15;;;;;;;7.10;4.75;;;;;;;8.60;100.00;98322.66;10304922;28;20049;-80
2024/02/22 08:26:19;;;;;;;5.45;4.15;;;;;;;8.59;100.00;98323.69;10329980;28;20058;-80
2024/02/22 08:31:24;;;;;;;5.75;4.72;;;;;;;8.95;100.00;98320.78;10313389;28;20050;-79
2024/02/22 08:36:27;;;;;;;4.72;4.22;;;;;;;9.03;100.00;98309.25;10294192;28;20096;-80
2024/02/22 08:41:30;;;;;;;5.07;3.80;;;;;;;8.78;100.00;98300.31;10295713;28;20377;-80
2024/02/22 08:46:35;;;;;;;3.97;3.58;;;;;;;9.09;100.00;98281.78;10309209;28;20046;-80
2024/02/22 08:51:40;;;;;;;4.03;3.38;;;;;;;8.83;100.00;98284.59;10306419;28;20047;-81
2024/02/22 08:56:45;;;;;;;4.45;3.28;;;;;;;9.20;100.00;98284.13;10307290;28;20142;-79
2024/02/22 09:01:49;;;;;;;3.30;2.70;;;;;;;9.06;100.00;98285.63;10297156;28;20128;-80
2024/02/22 09:06:52;;;;;;;3.53;3.20;;;;;;;9.06;100.00;98266.06;10328229;28;20061;-79
2024/02/22 09:11:55;;;;;;;4.32;3.92;;;;;;;8.95;100.00;98264.53;10308409;28;20054;-79
2024/02/22 09:17:00;;;;;;;3.83;3.42;;;;;;;8.91;100.00;98255.16;10295694;28;20054;-79
2024/02/22 09:22:04;;;;;;;4.20;2.72;;;;;;;9.11;100.00;98250.34;10310967;28;20058;-80
2024/02/22 09:27:07;;;;;;;3.15;2.63;;;;;;;9.35;100.00;98233.44;10300983;28;20054;-80
2024/02/22 09:32:12;;;;;;;3.63;1.90;;;;;;;9.33;100.00;98226.56;10291179;28;20049;-80
2024/02/22 09:37:15;;;;;;;2.55;1.90;;;;;;;9.57;100.00;98225.66;10296645;28;20054;-80
2024/02/22 09:42:20;;;;;;;3.53;1.60;;;;;;;9.55;100.00;98223.19;10297276;28;20123;-78
2024/02/22 09:47:24;;;;;;;2.17;1.25;;;;;;;9.98;100.00;98220.22;10288345;28;20051;-80
2024/02/22 09:52:28;;;;;;;1.30;1.20;;;;;;;9.75;100.00;98204.88;10284269;28;20059;-80
2024/02/22 09:57:31;;;;;;;0.82;0.82;;;;;;;10.16;100.00;98188.66;10285628;28;20054;-81
2024/02/22 10:02:36;;;;;;;2.38;1.00;;;;;;;9.90;100.00;98181.72;10299027;28;20050;-80
2024/02/22 10:07:40;;;;;;;1.23;0.98;;;;;;;9.85;100.00;98165.28;10297831;28;20047;-80
2024/02/22 10:12:44;;;;;;;1.30;1.13;;;;;;;9.73;100.00;98156.75;10296794;28;20604;-82
2024/02/22 10:17:50;;;;;;;1.55;1.23;;;;;;;10.18;100.00;98135.66;10279623;28;20047;-82
2024/02/22 10:22:53;;;;;;;2.00;1.10;;;;;;;10.33;100.00;98141.94;10270565;28;20057;-81
2024/02/22 10:27:57;;;;;;;1.30;1.20;;;;;;;10.81;100.00;98128.34;10273286;28;20047;-80
2024/02/22 10:33:02;;;;;;;0.80;0.70;;;;;;;10.46;100.00;98127.09;10260579;28;20538;-79
2024/02/22 10:38:08;;;;;;;1.35;1.00;;;;;;;10.88;100.00;98106.97;10272132;28;20865;-82
2024/02/22 10:43:12;;;;;;;0.82;0.75;;;;;;;10.65;100.00;98096.25;10285949;28;20618;-81
2024/02/22 10:48:18;;;;;;;1.63;0.77;;;;;;;11.06;100.00;98073.38;10281530;28;20070;-81
2024/02/22 10:53:22;;;;;;;2.22;0.30;;;;;;;11.36;97.93;98064.53;10263355;28;20058;-80
2024/02/22 10:58:27;;;;;;;0.30;0.30;;;;;;;11.27;97.84;98043.13;10291398;28;20056;-79
2024/02/22 11:03:33;;;;;;;0.35;0.30;;;;;;;11.03;97.19;98030.78;10278577;28;20053;-80
2024/02/22 11:08:36;;;;;;;0.25;0.25;;;;;;;11.14;99.08;98008.00;10278466;28;20101;-80
2024/02/22 11:13:39;;;;;;;1.02;0.40;;;;;;;11.40;95.92;98004.81;10281029;28;20046;-80
2024/02/22 11:18:46;;;;;;;3.60;0.45;;;;;;;11.31;95.34;97997.91;10294219;28;20133;-80
2024/02/22 11:23:50;;;;;;;1.85;0.30;;;;;;;11.89;92.60;97966.50;10260868;28;20047;-81
2024/02/22 11:28:53;;;;;;;0.98;0.35;;;;;;;11.98;87.76;97955.63;10257151;28;20637;-80
2024/02/22 11:33:59;;;;;;;0.20;0.20;;;;;;;11.66;89.32;97947.88;10260402;28;20556;-81
2024/02/22 11:39:04;;;;;;;0.77;0.30;;;;;;;11.36;92.88;97932.84;10283639;28;20054;-78
2024/02/22 11:44:11;;;;;;;0.32;0.10;;;;;;;10.74;93.69;97923.34;10304015;28;20059;-79
2024/02/22 11:49:19;;;;;;;0.10;0.10;;;;;;;10.69;95.47;97912.31;10272344;28;20053;-78
2024/02/22 11:54:24;;;;;;;0.13;0.13;;;;;;;11.20;93.54;97886.34;10312669;28;20061;-81
2024/02/22 11:59:27;;;;;;;0.38;0.10;;;;;;;11.53;90.78;97861.69;10311738;28;20066;-80
2024/02/22 12:04:33;;;;;;;1.08;0.40;;;;;;;11.76;88.49;97848.03;10304749;28;20054;-79
2024/02/22 12:09:36;;;;;;;0.47;0.10;;;;;;;11.67;89.64;97843.84;10291764;28;20065;-79
2024/02/22 12:14:39;;;;;;;2.88;0.30;;;;;;;11.34;89.34;97828.22;10302147;28;20119;-79
2024/02/22 12:19:44;;;;;;;0.43;0.20;;;;;;;11.59;89.92;97814.38;10302414;28;20564;-79
2024/02/22 12:24:48;;;;;;;1.27;0.20;;;;;;;11.40;89.69;97795.19;10285100;28;20429;-80
2024/02/22 12:29:51;;;;;;;0.32;0.25;;;;;;;11.48;91.26;97783.50;10295792;28;20062;-81
2024/02/22 12:34:57;;;;;;;1.45;0.20;;;;;;;11.45;92.23;97783.88;10278079;28;20110;-81
2024/02/22 12:40:01;;;;;;;2.28;0.30;;;;;;;11.43;93.30;97767.94;10277981;28;20061;-78
2024/02/22 12:45:06;;;;;;;0.40;0.38;;;;;;;11.39;93.37;97750.53;10275431;28;20047;-78
2024/02/22 12:50:10;;;;;;;0.50;0.20;;;;;;;11.34;93.52;97731.47;10288031;28;20046;-79
2024/02/22 12:55:14;;;;;;;0.40;0.38;;;;;;;11.32;94.04;97716.56;10282407;28;20058;-79
2024/02/22 13:00:17;;;;;;;0.30;0.30;;;;;;;11.44;93.82;97699.72;10292196;28;20565;-79
2024/02/22 13:05:22;;;;;;;0.20;0.20;;;;;;;11.27;96.40;97682.22;10282897;28;20061;-78
2024/02/22 13:10:29;;;;;;;0.63;0.30;;;;;;;11.32;98.78;97663.66;10326290;28;20080;-80
2024/02/22 13:15:33;;;;;;;0.30;0.30;;;;;;;11.28;100.00;97641.72;10306884;28;20061;-79
2024/02/22 13:20:39;;;;;;;0.70;0.30;;;;;;;11.32;100.00;97635.97;10304609;28;20188;-79
2024/02/22 13:25:47;;;;;;;0.50;0.40;;;;;;;11.35;100.00;97628.31;10308234;28;20072;-79
2024/02/22 13:30:52;;;;;;;0.40;0.40;;;;;;;11.23;100.00;97611.09;10330361;28;20046;-79
2024/02/22 13:35:56;;;;;;;1.27;0.30;;;;;;;10.97;100.00;97598.25;10307044;28;20144;-79
2024/02/22 13:41:03;;;;;;;0.20;0.20;;;;;;;11.22;100.00;97577.22;10312550;28;20077;-80
2024/02/22 13:46:08;;;;;;;0.55;0.40;;;;;;;11.40;100.00;97571.31;10316965;28;20121;-80
2024/02/22 13:51:13;;;;;;;1.95;0.40;;;;;;;11.31;100.00;97556.38;10318876;28;20053;-80
2024/02/22 13:56:18;;;;;;;1.65;0.40;;;;;;;11.07;100.00;97536.97;10316378;28;20057;-78
2024/02/22 14:01:21;;;;;;;0.38;0.30;;;;;;;11.00;100.00;97511.94;10311044;28;20038;-81
2024/02/22 14:06:26;;;;;;;1.60;0.30;;;;;;;10.93;100.00;97489.59;10313195;28;20165;-80
2024/02/22 14:11:29;;;;;;;0.38;0.28;;;;;;;10.98;100.00;97468.34;10327784;28;20069;-79
2024/02/22 14:16:35;;;;;;;0.10;0.10;;;;;;;11.12;100.00;97448.59;10326357;28;20057;-79
2024/02/22 14:21:40;;;;;;;0.50;0.30;;;;;;;11.18;100.00;97414.75;10295199;28;20544;-80
2024/02/22 14:26:44;;;;;;;0.60;0.60;;;;;;;11.61;100.00;97392.97;10316499;28;20414;-79
2024/02/22 14:31:48;;;;;;;0.52;0.50;;;;;;;11.67;100.00;97390.28;10269726;28;20050;-79
2024/02/22 14:37:11;;;;;;;1.83;0.75;;;;;;;11.46;100.00;97377.84;10305174;28;20050;-80
2024/02/22 14:42:16;;;;;;;0.55;0.55;;;;;;;11.41;100.00;97379.47;10312224;28;20050;-79
2024/02/22 14:47:22;;;;;;;0.90;0.90;;;;;;;11.22;100.00;97357.75;10311700;28;20043;-80
2024/02/22 14:52:26;;;;;;;0.80;0.70;;;;;;;11.38;100.00;97337.75;10310027;28;20062;-80
2024/02/22 14:57:31;;;;;;;0.60;0.50;;;;;;;11.47;100.00;97319.56;10293639;28;20078;-79
2024/02/22 15:02:34;;;;;;;0.20;0.20;;;;;;;11.64;100.00;97309.22;10303803;28;20070;-79
2024/02/22 15:07:39;;;;;;;0.60;0.60;;;;;;;11.68;100.00;97289.81;10298062;28;20069;-79
2024/02/22 15:12:42;;;;;;;0.50;0.35;;;;;;;11.71;100.00;97293.91;10300058;28;20042;-79
2024/02/22 15:17:46;;;;;;;0.30;0.30;;;;;;;11.66;99.78;97294.56;10303985;28;20081;-79
2024/02/22 15:22:50;;;;;;;0.88;0.50;;;;;;;11.75;98.99;97280.91;10305358;28;20047;-79
2024/02/22 15:27:53;;;;;;;1.30;0.10;;;;;;;11.56;97.50;97261.88;10262448;28;20046;-79
2024/02/22 15:32:57;;;;;;;1.38;0.10;;;;;;;11.79;93.36;97245.31;10285933;28;20070;-79
2024/02/22 15:38:02;;;;;;;0.10;0.10;;;;;;;11.86;91.68;97218.44;10283563;28;20046;-79
2024/02/22 15:43:05;;;;;;;0.65;0.10;;;;;;;11.60;91.81;97197.75;10296927;28;20054;-78
2024/02/22 15:48:08;;;;;;;0.15;0.15;;;;;;;11.97;89.57;97176.63;10287671;28;20441;-79
2024/02/22 15:53:15;;;;;;;1.05;0.20;;;;;;;11.73;89.94;97201.25;10284728;28;20051;-79
2024/02/22 15:58:18;;;;;;;0.13;0.13;;;;;;;11.97;89.34;97168.56;10285600;28;20053;-80
2024/02/22 16:03:21;;;;;;;0.60;0.32;;;;;;;12.01;88.64;97165.22;10307513;28;20101;-79
2024/02/22 16:08:26;;;;;;;0.20;0.20;;;;;;;12.03;87.23;97140.81;10319909;28;20051;-79
2024/02/22 16:13:30;;;;;;;0.95;0.88;;;;;;;12.11;86.42;97133.31;10297359;28;20114;-78
2024/02/22 16:18:35;;;;;;;1.20;0.40;;;;;;;11.99;86.61;97124.28;10304828;28;20058;-79
2024/02/22 16:23:40;;;;;;;0.10;0.10;;;;;;;11.67;87.11;97108.03;10303339;28;20056;-79
2024/02/22 16:28:43;;;;;;;1.48;0.40;;;;;;;12.12;85.16;97072.25;10304652;28;20069;-79
2024/02/22 16:33:47;;;;;;;0.55;0.40;;;;;;;11.98;85.99;97070.69;10305345;28;20053;-79
2024/02/22 16:38:52;;;;;;;0.15;0.10;;;;;;;11.85;85.67;97082.34;10302579;28;20053;-80
2024/02/22 16:44:08;;;;;;;0.17;0.17;;;;;;;11.93;85.23;97082.09;10304059;28;20050;-80
2024/02/22 16:49:11;;;;;;;0.50;0.50;;;;;;;11.93;85.76;97061.41;10290188;28;20042;-79
2024/02/22 16:54:16;;;;;;;0.10;0.10;;;;;;;11.63;86.68;97062.97;10286237;28;20038;-79
2024/02/22 16:59:19;;;;;;;2.20;0.10;;;;;;;11.59;86.69;97053.66;10305498;28;20043;-79
2024/02/22 17:04:23;;;;;;;0.40;0.30;;;;;;;11.45;87.42;97034.06;10317258;28;20318;-79
2024/02/22 17:09:28;;;;;;;0.30;0.10;;;;;;;11.25;87.70;97031.44;10311402;28;20062;-79
2024/02/22 17:14:31;;;;;;;0.68;0.20;;;;;;;11.36;90.00;97032.66;10288651;28;20046;-78
2024/02/22 17:19:34;;;;;;;0.15;0.15;;;;;;;11.31;90.85;96994.84;10264568;28;20061;-78
2024/02/22 17:24:41;;;;;;;1.20;0.20;;;;;;;11.18;92.74;97012.66;10304241;28;20422;-78
2024/02/22 17:29:44;;;;;;;0.32;0.20;;;;;;;10.81;96.29;96996.16;10312809;28;20076;-79
2024/02/22 17:34:48;;;;;;;0.28;0.20;;;;;;;10.87;95.35;97007.09;10303790;28;21235;-78
2024/02/22 17:39:52;;;;;;;0.22;0.17;;;;;;;10.64;98.68;96994.09;10304834;28;20047;-78
2024/02/22 17:44:55;;;;;;;0.15;0.13;;;;;;;10.72;99.57;96957.13;10299516;28;20069;-78
2024/02/22 17:49:58;;;;;;;0.20;0.10;;;;;;;10.73;100.00;96960.66;10286202;28;20054;-78
2024/02/22 17:55:03;;;;;;;0.65;0.35;;;;;;;10.57;100.00;96953.88;10287338;28;20049;-78
2024/02/22 18:00:07;;;;;;;0.32;0.10;;;;;;;10.35;100.00;96956.75;10294328;28;20082;-78
2024/02/22 18:05:13;;;;;;;0.30;0.20;;;;;;;10.78;98.51;96948.25;10293298;28;20133;-79
2024/02/22 18:10:18;;;;;;;0.10;0.10;;;;;;;10.56;100.00;96963.78;10292979;28;20101;-78
2024/02/22 18:15:21;;;;;;;0.15;0.10;;;;;;;10.64;98.89;96943.97;10292887;28;20086;-78
2024/02/22 18:20:25;;;;;;;0.82;0.20;;;;;;;10.67;97.67;96951.59;10291091;28;20050;-77
2024/02/22 18:25:30;;;;;;;0.80;0.30;;;;;;;10.77;99.87;96922.44;10288123;28;20058;-77
2024/02/22 18:30:35;;;;;;;0.28;0.15;;;;;;;10.34;100.00;96909.50;10272389;28;20089;-78
2024/02/22 18:35:38;;;;;;;0.10;0.10;;;;;;;10.43;100.00;96903.94;10272028;28;20057;-78
2024/02/22 18:40:43;;;;;;;0.38;0.20;;;;;;;10.56;99.86;96888.66;10274806;28;20081;-78
2024/02/22 18:45:46;;;;;;;0.20;0.10;;;;;;;10.28;100.00;96894.22;10283130;28;20054;-79
2024/02/22 18:50:49;;;;;;;0.30;0.15;;;;;;;10.12;100.00;96886.59;10291168;28;20046;-80
2024/02/22 18:55:57;;;;;;;1.17;0.40;;;;;;;10.09;100.00;96849.47;10285285;28;20047;-79
2024/02/22 19:01:00;;;;;;;0.68;0.30;;;;;;;10.16;100.00;96847.63;10293403;28;20103;-80
2024/02/22 19:06:03;;;;;;;0.40;0.40;;;;;;;10.09;100.00;96844.09;10294612;28;20049;-78
2024/02/22 19:11:09;;;;;;;1.65;0.28;;;;;;;10.06;100.00;96840.00;10272669;28;20104;-81
2024/02/22 19:16:13;;;;;;;0.10;0.10;;;;;;;10.20;100.00;96848.84;10277050;28;20172;-78
2024/02/22 19:21:16;;;;;;;0.30;0.28;;;;;;;10.35;100.00;96830.69;10283509;28;20148;-81
2024/02/22 19:26:21;;;;;;;1.00;0.20;;;;;;;10.54;100.00;96831.66;10288095;28;20192;-81
2024/02/22 19:31:27;;;;;;;1.65;0.22;;;;;;;10.20;100.00;96840.78;10283383;28;20094;-80
2024/02/22 19:36:32;;;;;;;1.35;0.10;;;;;;;10.39;100.00;96818.50;10283133;28;20063;-79
2024/02/22 19:41:52;;;;;;;3.42;0.15;;;;;;;10.69;100.00;96809.94;10299895;28;20410;-79
2024/02/22 19:46:56;;;;;;;0.30;0.25;;;;;;;10.84;97.56;96812.38;10312719;28;20051;-80
2024/02/22 19:51:59;;;;;;;0.10;0.10;;;;;;;10.65;95.83;96791.81;10275311;28;20057;-79
2024/02/22 19:57:04;;;;;;;1.83;0.20;;;;;;;10.76;94.25;96769.66;10269618;28;20722;-80
2024/02/22 20:02:07;;;;;;;0.60;0.20;;;;;;;10.96;91.19;96745.41;10286302;28;21865;-80
2024/02/22 20:07:11;;;;;;;1.83;0.13;;;;;;;11.35;87.53;96733.59;10283788;28;20050;-80
2024/02/22 20:12:15;;;;;;;0.20;0.15;;;;;;;10.92;87.99;96797.91;10276329;28;20074;-80
2024/02/22 20:17:18;;;;;;;0.73;0.30;;;;;;;11.17;86.67;96763.09;10304661;28;20051;-79
2024/02/22 20:22:21;;;;;;;0.30;0.20;;;;;;;11.47;83.79;96766.00;10298695;28;20046;-81
2024/02/22 20:27:26;;;;;;;0.28;0.10;;;;;;;11.13;84.41;96754.63;10296406;28;20058;-80
2024/02/22 20:32:29;;;;;;;0.20;0.20;;;;;;;11.18;84.35;96762.84;10282665;28;20049;-80
2024/02/22 20:37:33;;;;;;;1.98;0.30;;;;;;;11.15;86.31;96765.16;10282457;28;20050;-80
2024/02/22 20:42:37;;;;;;;4.40;0.40;;;;;;;9.48;100.00;96904.00;10294910;28;20054;-77
2024/02/22 20:47:40;;;;;;;0.30;0.30;;;;;;;6.80;100.00;96915.38;10313999;28;20054;-77
2024/02/22 20:52:43;;;;;;;0.20;0.10;;;;;;;6.69;100.00;96893.66;10336172;28;20046;-78
2024/02/22 20:57:48;;;;;;;0.10;0.00;;;;;;;6.79;100.00;96903.03;10310246;28;20054;-79
2024/02/22 21:02:51;;;;;;;1.23;0.28;;;;;;;6.95;100.00;96906.56;10295678;28;20061;-80
2024/02/22 21:07:53;;;;;;;0.30;0.13;;;;;;;7.20;100.00;96931.91;10289088;28;20081;-80
2024/02/22 21:12:59;;;;;;;0.22;0.10;;;;;;;7.41;100.00;96931.16;10297571;28;20117;-82
2024/02/22 21:18:02;;;;;;;0.60;0.30;;;;;;;7.47;100.00;96975.78;10312663;28;20046;-80
2024/02/22 21:23:05;;;;;;;1.35;0.60;;;;;;;7.79;100.00;96971.00;10306755;28;20054;-81
2024/02/22 21:28:10;;;;;;;1.40;0.65;;;;;;;7.45;98.45;96980.47;10316554;28;21345;-80
2024/02/22 21:33:13;;;;;;;1.65;0.80;;;;;;;7.42;94.78;97044.94;10314572;28;20106;-81
2024/02/22 21:38:16;;;;;;;3.65;0.88;;;;;;;7.53;95.78;97038.28;10314702;28;20057;-80
2024/02/22 21:43:22;;;;;;;1.85;0.80;;;;;;;7.37;91.26;97036.63;10310463;28;20050;-81
2024/02/22 21:48:30;;;;;;;5.32;0.93;;;;;;;7.71;90.59;97052.06;10309994;28;20054;-81
2024/02/22 21:53:33;;;;;;;6.32;1.23;;;;;;;7.57;87.38;97046.75;10315386;28;20046;-80
2024/02/22 21:58:38;;;;;;;5.78;0.82;;;;;;;7.58;85.73;97078.63;10301720;28;20133;-81
2024/02/22 22:03:41;;;;;;;3.13;0.80;;;;;;;7.65;85.88;97078.69;10297924;28;20050;-81
2024/02/22 22:08:44;;;;;;;6.50;1.00;;;;;;;7.99;83.49;97078.09;10301556;28;20055;-79
2024/02/22 22:13:48;;;;;;;4.28;0.80;;;;;;;7.78;82.00;97089.53;10292339;28;20057;-80
2024/02/22 22:18:51;;;;;;;2.72;0.88;;;;;;;7.73;80.38;97098.16;10286075;28;20164;-78
2024/02/22 22:23:55;;;;;;;2.35;0.60;;;;;;;7.48;77.94;97150.16;10271203;28;20058;-80
2024/02/22 22:29:01;;;;;;;9.25;1.40;;;;;;;7.82;75.39;97133.59;10280238;28;20061;-80
2024/02/22 22:34:07;;;;;;;4.18;1.02;;;;;;;7.53;74.77;97130.94;10299907;28;20065;-80
2024/02/22 22:39:11;;;;;;;5.72;1.08;;;;;;;7.24;73.03;97168.09;10298118;28;20056;-80
2024/02/22 22:44:15;;;;;;;5.50;1.33;;;;;;;7.57;70.47;97134.88;10310625;28;20395;-79
2024/02/22 22:49:18;;;;;;;5.85;0.85;;;;;;;7.48;70.87;97137.63;10307209;28;20074;-78
2024/02/22 22:54:21;;;;;;;4.72;0.70;;;;;;;7.21;69.64;97179.16;10289191;28;20153;-79
2024/02/22 22:59:26;;;;;;;7.60;1.27;;;;;;;7.35;68.40;97212.22;10272615;28;20493;-79
2024/02/22 23:04:29;;;;;;;3.08;0.63;;;;;;;7.18;67.48;97179.47;10304004;28;20497;-79
2024/02/22 23:09:32;;;;;;;2.58;0.80;;;;;;;7.25;66.33;97175.09;10300629;28;20176;-78
2024/02/22 23:14:36;;;;;;;2.60;0.60;;;;;;;7.12;66.16;97211.41;10287310;28;20055;-78
2024/02/22 23:19:39;;;;;;;6.50;0.80;;;;;;;6.82;66.30;97232.63;10296358;28;20053;-78
2024/02/22 23:24:43;;;;;;;1.95;1.05;;;;;;;6.83;67.38;97243.13;10273505;28;20122;-80
2024/02/22 23:29:47;;;;;;;2.75;1.05;;;;;;;6.83;66.37;97277.81;10296356;28;20046;-80
2024/02/22 23:34:50;;;;;;;6.32;0.73;;;;;;;7.03;66.18;97277.38;10284612;28;20054;-80